Gillum, Illinois
Current Conditions -  °F | °C
As of 7:56 AM on Wednesday 22 Oct 2014 (Local Time) from KBMI Reporting Station
Haze Haze  
Wind Chill: 33°   Ceiling: Unl
Heat Index: 37°   Visibility: 5mi
Dew Point: 36°   Wind: 5mph
Humidity: 97%   Direction: 60°ENE
Pressure: 30.34"   Gusts: NA
Location:  40.4766°N, 88.992°W
Report Text: KBMI 221256Z 06004KT 5SM BR CLR 03/02 A3034 RMK AO2 T00270022 SLP283
Loading
Personal Weather Stations






























Interactive Weather Map
Tropical Storm Tracking
New forecast layout! Learn more

10-Day Weather Forecast

Advertisements
Track Severe Weather on mobile